PWSweather.com
Personal Weather Stations
Station Observations
JTOWN
Canterbrook Farms, Jeffersontown, KY 40299

Canterbrook FarmsJeffersontown, KY 40299

Lat: 38.155364, Lon: -85.47956

Elevation: 510

Station Type: Davis Vantage Pro2

http://www.canterbrookfarms.org/wx

Latest ConditionsUpdated 6:30:01 AM EDT Thursday, Jul 24, 2014
Currently Today's Max Today's Min Today's Average
Temperature 67.8°F19.9°C 74.7°F23.7°C 67.8°F19.9°C 71.2°F21.8°C
Dew Point 62.1°F16.7°C 69.9°F21.1°C 61.9°F16.6°C 66.5°F19.2°C
Winds 7.0 mph NE11.3 kmh NE 9.0 mph NE14.5 kmh NE - 3.5 mph 5.6 kmh
Wind Gusts 12.0 mph19.3 kmh 14.0 mph22.5 kmh - -
Humidity 82% 87% 80% 85%
Pressure 29.94 in1013.9 mb 29.95 in1014.2 mb 29.91 in1012.9 mb -
Hour Temp Dew Point Humidity Winds Wind Gusts Pressure Precip Precip Rate Daily Precip Total
06:30 AM 67.8°F19.9°C 62.1°F16.7°C 82% 7.0 mph NE11.3 kmh NE 12.0 mph19.3 kmh 29.94 in1013.9 mb 0.00 in0.0 mm 0.00 in/hr0.0 mm/hr 0.00 in0.0 mm
06:15 AM 68.3°F20.2°C 61.9°F16.6°C 80% 9.0 mph NE14.5 kmh NE 14.0 mph22.5 kmh 29.93 in1013.5 mb 0.00 in0.0 mm 0.00 in/hr0.0 mm/hr 0.00 in0.0 mm
06:00 AM 69.1°F20.6°C 63.7°F17.6°C 83% 4.0 mph NNE6.4 kmh NNE 10.0 mph16.1 kmh 29.93 in1013.5 mb 0.00 in0.0 mm 0.00 in/hr0.0 mm/hr 0.00 in0.0 mm
05:45 AM 69.4°F20.8°C 64.4°F18.0°C 84% 5.0 mph NE8.0 kmh NE 8.0 mph12.9 kmh 29.93 in1013.5 mb 0.00 in0.0 mm 0.00 in/hr0.0 mm/hr 0.00 in0.0 mm
05:30 AM 69.8°F21.0°C 65.1°F18.4°C 85% 4.0 mph NE6.4 kmh NE 10.0 mph16.1 kmh 29.93 in1013.5 mb 0.00 in0.0 mm 0.00 in/hr0.0 mm/hr 0.00 in0.0 mm
05:15 AM 69.9°F21.1°C 65.5°F18.6°C 86% 5.0 mph NNE8.0 kmh NNE 12.0 mph19.3 kmh 29.92 in1013.2 mb 0.00 in0.0 mm 0.00 in/hr0.0 mm/hr 0.00 in0.0 mm
05:00 AM 70.1°F21.2°C 66.0°F18.9°C 87% 4.0 mph NNE6.4 kmh NNE 7.0 mph11.3 kmh 29.91 in1012.9 mb 0.00 in0.0 mm 0.00 in/hr0.0 mm/hr 0.00 in0.0 mm
04:45 AM 70.1°F21.2°C 65.7°F18.7°C 86% 3.0 mph NNE4.8 kmh NNE 8.0 mph12.9 kmh 29.91 in1012.9 mb 0.00 in0.0 mm 0.00 in/hr0.0 mm/hr 0.00 in0.0 mm
04:30 AM 70.1°F21.2°C 66.0°F18.9°C 87% 3.0 mph NE4.8 kmh NE 7.0 mph11.3 kmh 29.91 in1012.9 mb 0.00 in0.0 mm 0.00 in/hr0.0 mm/hr 0.00 in0.0 mm
04:15 AM 70.1°F21.2°C 66.0°F18.9°C 87% 5.0 mph NE8.0 kmh NE 12.0 mph19.3 kmh 29.91 in1012.9 mb 0.00 in0.0 mm 0.00 in/hr0.0 mm/hr 0.00 in0.0 mm
04:00 AM 70.1°F21.2°C 66.0°F18.9°C 87% 3.0 mph NE4.8 kmh NE 7.0 mph11.3 kmh 29.91 in1012.9 mb 0.00 in0.0 mm 0.00 in/hr0.0 mm/hr 0.00 in0.0 mm
03:45 AM 70.3°F21.3°C 66.2°F19.0°C 87% 5.0 mph NE8.0 kmh NE 9.0 mph14.5 kmh 29.91 in1012.9 mb 0.00 in0.0 mm 0.00 in/hr0.0 mm/hr 0.00 in0.0 mm
03:30 AM 70.6°F21.4°C 66.2°F19.0°C 86% 2.0 mph N3.2 kmh N 5.0 mph8.0 kmh 29.92 in1013.2 mb 0.00 in0.0 mm 0.00 in/hr0.0 mm/hr 0.00 in0.0 mm
03:15 AM 70.9°F21.6°C 66.5°F19.2°C 86% 4.0 mph N6.4 kmh N 7.0 mph11.3 kmh 29.93 in1013.5 mb 0.00 in0.0 mm 0.00 in/hr0.0 mm/hr 0.00 in0.0 mm
03:00 AM 71.1°F21.7°C 66.4°F19.1°C 85% 2.0 mph N3.2 kmh N 7.0 mph11.3 kmh 29.93 in1013.5 mb 0.00 in0.0 mm 0.00 in/hr0.0 mm/hr 0.00 in0.0 mm
02:45 AM 71.3°F21.8°C 66.2°F19.0°C 84% 3.0 mph N4.8 kmh N 8.0 mph12.9 kmh 29.93 in1013.5 mb 0.00 in0.0 mm 0.00 in/hr0.0 mm/hr 0.00 in0.0 mm
02:30 AM 71.3°F21.8°C 66.2°F19.0°C 84% 3.0 mph N4.8 kmh N 8.0 mph12.9 kmh 29.93 in1013.5 mb 0.00 in0.0 mm 0.00 in/hr0.0 mm/hr 0.00 in0.0 mm
02:15 AM 71.6°F22.0°C 66.8°F19.3°C 85% 4.0 mph N6.4 kmh N 8.0 mph12.9 kmh 29.93 in1013.5 mb 0.00 in0.0 mm 0.00 in/hr0.0 mm/hr 0.00 in0.0 mm
02:00 AM 72.0°F22.2°C 67.6°F19.8°C 86% 1.0 mph NW1.6 kmh NW 6.0 mph9.7 kmh 29.93 in1013.5 mb 0.00 in0.0 mm 0.00 in/hr0.0 mm/hr 0.00 in0.0 mm
01:45 AM 72.1°F22.3°C 67.7°F19.8°C 86% 2.0 mph NNW3.2 kmh NNW 5.0 mph8.0 kmh 29.94 in1013.9 mb 0.00 in0.0 mm 0.00 in/hr0.0 mm/hr 0.00 in0.0 mm
01:30 AM 72.3°F22.4°C 68.2°F20.1°C 87% 2.0 mph NNE3.2 kmh NNE 4.0 mph6.4 kmh 29.95 in1014.2 mb 0.00 in0.0 mm 0.00 in/hr0.0 mm/hr 0.00 in0.0 mm
01:15 AM 72.7°F22.6°C 68.6°F20.3°C 87% 2.0 mph N3.2 kmh N 5.0 mph8.0 kmh 29.95 in1014.2 mb 0.00 in0.0 mm 0.00 in/hr0.0 mm/hr 0.00 in0.0 mm
01:00 AM 73.0°F22.8°C 68.9°F20.5°C 87% 3.0 mph NNW4.8 kmh NNW 6.0 mph9.7 kmh 29.95 in1014.2 mb 0.00 in0.0 mm 0.00 in/hr0.0 mm/hr 0.00 in0.0 mm
12:45 AM 73.5°F23.1°C 69.1°F20.6°C 86% 3.0 mph NNW4.8 kmh NNW 8.0 mph12.9 kmh 29.95 in1014.2 mb 0.00 in0.0 mm 0.00 in/hr0.0 mm/hr 0.00 in0.0 mm
12:30 AM 74.4°F23.6°C 69.9°F21.1°C 86% 3.0 mph NW4.8 kmh NW 7.0 mph11.3 kmh 29.95 in1014.2 mb 0.00 in0.0 mm 0.00 in/hr0.0 mm/hr 0.00 in0.0 mm
12:15 AM 74.6°F23.7°C 69.8°F21.0°C 85% 2.0 mph NNW3.2 kmh NNW 7.0 mph11.3 kmh 29.95 in1014.2 mb 0.00 in0.0 mm 0.00 in/hr0.0 mm/hr 0.00 in0.0 mm
12:00 AM 74.7°F23.7°C 69.9°F21.1°C 85% 2.0 mph NNW3.2 kmh NNW 7.0 mph11.3 kmh 29.95 in1014.2 mb 0.00 in0.0 mm 0.00 in/hr0.0 mm/hr 0.00 in0.0 mm